sensor_id;sensor_type;location;lat;lon;timestamp;temperature;humidity
14850;DHT22;7517;48.400;11.770;2023-05-10T00:01:25;19.10;68.10
14850;DHT22;7517;48.400;11.770;2023-05-10T00:03:52;19.00;68.30
14850;DHT22;7517;48.400;11.770;2023-05-10T00:06:20;19.00;68.40
14850;DHT22;7517;48.400;11.770;2023-05-10T00:08:49;19.00;68.70
14850;DHT22;7517;48.400;11.770;2023-05-10T00:11:16;18.90;69.10
14850;DHT22;7517;48.400;11.770;2023-05-10T00:13:44;18.90;69.10
14850;DHT22;7517;48.400;11.770;2023-05-10T00:16:11;18.90;69.40
14850;DHT22;7517;48.400;11.770;2023-05-10T00:18:39;18.80;69.50
14850;DHT22;7517;48.400;11.770;2023-05-10T00:21:07;18.80;69.70
14850;DHT22;7517;48.400;11.770;2023-05-10T00:23:35;18.70;70.00
14850;DHT22;7517;48.400;11.770;2023-05-10T00:26:06;18.70;70.40
14850;DHT22;7517;48.400;11.770;2023-05-10T00:28:33;18.70;71.00
14850;DHT22;7517;48.400;11.770;2023-05-10T00:31:00;18.70;71.00
14850;DHT22;7517;48.400;11.770;2023-05-10T00:33:28;18.70;71.30
14850;DHT22;7517;48.400;11.770;2023-05-10T00:35:55;18.60;71.50
14850;DHT22;7517;48.400;11.770;2023-05-10T00:38:23;18.60;71.70
14850;DHT22;7517;48.400;11.770;2023-05-10T00:40:51;18.60;72.00
14850;DHT22;7517;48.400;11.770;2023-05-10T00:43:20;18.50;72.20
14850;DHT22;7517;48.400;11.770;2023-05-10T00:45:47;18.50;72.50
14850;DHT22;7517;48.400;11.770;2023-05-10T00:48:15;18.50;72.50
14850;DHT22;7517;48.400;11.770;2023-05-10T00:50:42;18.50;72.70
14850;DHT22;7517;48.400;11.770;2023-05-10T00:53:10;18.50;73.10
14850;DHT22;7517;48.400;11.770;2023-05-10T00:55:37;18.50;73.50
14850;DHT22;7517;48.400;11.770;2023-05-10T00:58:05;18.40;73.60
14850;DHT22;7517;48.400;11.770;2023-05-10T01:00:35;18.40;73.80
14850;DHT22;7517;48.400;11.770;2023-05-10T01:03:05;18.40;74.30
14850;DHT22;7517;48.400;11.770;2023-05-10T01:05:33;18.40;74.10
14850;DHT22;7517;48.400;11.770;2023-05-10T01:08:01;18.40;74.40
14850;DHT22;7517;48.400;11.770;2023-05-10T01:10:28;18.40;74.70
14850;DHT22;7517;48.400;11.770;2023-05-10T01:12:56;18.40;75.00
14850;DHT22;7517;48.400;11.770;2023-05-10T01:15:26;18.40;75.30
14850;DHT22;7517;48.400;11.770;2023-05-10T01:17:56;18.40;75.70
14850;DHT22;7517;48.400;11.770;2023-05-10T01:20:23;18.40;76.10
14850;DHT22;7517;48.400;11.770;2023-05-10T01:23:21;18.40;76.10
14850;DHT22;7517;48.400;11.770;2023-05-10T01:26:24;18.40;77.70
14850;DHT22;7517;48.400;11.770;2023-05-10T01:29:14;18.40;77.70
14850;DHT22;7517;48.400;11.770;2023-05-10T01:32:14;18.40;77.00
14850;DHT22;7517;48.400;11.770;2023-05-10T01:34:54;18.40;77.80
14850;DHT22;7517;48.400;11.770;2023-05-10T01:37:33;18.40;77.20
14850;DHT22;7517;48.400;11.770;2023-05-10T01:40:12;18.40;77.40
14850;DHT22;7517;48.400;11.770;2023-05-10T01:42:49;18.40;77.30
14850;DHT22;7517;48.400;11.770;2023-05-10T01:45:27;18.40;77.30
14850;DHT22;7517;48.400;11.770;2023-05-10T01:48:05;18.40;77.70
14850;DHT22;7517;48.400;11.770;2023-05-10T01:50:35;18.40;77.70
14850;DHT22;7517;48.400;11.770;2023-05-10T01:53:07;18.40;77.50
14850;DHT22;7517;48.400;11.770;2023-05-10T01:55:41;18.30;77.60
14850;DHT22;7517;48.400;11.770;2023-05-10T01:58:17;18.30;77.80
14850;DHT22;7517;48.400;11.770;2023-05-10T02:00:50;18.30;77.80
14850;DHT22;7517;48.400;11.770;2023-05-10T02:03:23;18.30;77.60
14850;DHT22;7517;48.400;11.770;2023-05-10T02:05:54;18.30;78.00
14850;DHT22;7517;48.400;11.770;2023-05-10T02:08:23;18.30;77.90
14850;DHT22;7517;48.400;11.770;2023-05-10T02:10:54;18.30;78.10
14850;DHT22;7517;48.400;11.770;2023-05-10T02:13:23;18.30;78.20
14850;DHT22;7517;48.400;11.770;2023-05-10T02:15:53;18.30;78.20
14850;DHT22;7517;48.400;11.770;2023-05-10T02:18:24;18.20;78.20
14850;DHT22;7517;48.400;11.770;2023-05-10T02:20:54;18.20;78.40
14850;DHT22;7517;48.400;11.770;2023-05-10T02:23:23;18.20;78.50
14850;DHT22;7517;48.400;11.770;2023-05-10T02:25:53;18.20;78.60
14850;DHT22;7517;48.400;11.770;2023-05-10T02:28:23;18.20;78.70
14850;DHT22;7517;48.400;11.770;2023-05-10T02:30:53;18.20;78.60
14850;DHT22;7517;48.400;11.770;2023-05-10T02:33:23;18.20;78.60
14850;DHT22;7517;48.400;11.770;2023-05-10T02:35:54;18.20;78.80
14850;DHT22;7517;48.400;11.770;2023-05-10T02:38:24;18.20;78.80
14850;DHT22;7517;48.400;11.770;2023-05-10T02:40:54;18.10;78.70
14850;DHT22;7517;48.400;11.770;2023-05-10T02:43:23;18.10;78.90
14850;DHT22;7517;48.400;11.770;2023-05-10T02:45:51;18.10;79.10
14850;DHT22;7517;48.400;11.770;2023-05-10T02:48:19;18.10;79.10
14850;DHT22;7517;48.400;11.770;2023-05-10T02:50:48;18.10;79.10
14850;DHT22;7517;48.400;11.770;2023-05-10T02:53:22;18.10;79.10
14850;DHT22;7517;48.400;11.770;2023-05-10T02:55:58;18.10;79.20
14850;DHT22;7517;48.400;11.770;2023-05-10T02:58:29;18.10;79.40
14850;DHT22;7517;48.400;11.770;2023-05-10T03:00:56;18.10;79.30
14850;DHT22;7517;48.400;11.770;2023-05-10T03:03:24;18.10;79.40
14850;DHT22;7517;48.400;11.770;2023-05-10T03:05:53;18.10;79.60
14850;DHT22;7517;48.400;11.770;2023-05-10T03:08:22;18.10;79.70
14850;DHT22;7517;48.400;11.770;2023-05-10T03:10:59;18.10;79.50
14850;DHT22;7517;48.400;11.770;2023-05-10T03:13:43;18.10;79.90
14850;DHT22;7517;48.400;11.770;2023-05-10T03:16:17;18.10;79.80
14850;DHT22;7517;48.400;11.770;2023-05-10T03:18:56;18.10;79.80
14850;DHT22;7517;48.400;11.770;2023-05-10T03:21:33;18.10;79.90
14850;DHT22;7517;48.400;11.770;2023-05-10T03:24:07;18.10;79.90
14850;DHT22;7517;48.400;11.770;2023-05-10T03:26:38;18.10;79.90
14850;DHT22;7517;48.400;11.770;2023-05-10T03:29:10;18.00;79.80
14850;DHT22;7517;48.400;11.770;2023-05-10T03:31:39;18.00;80.00
14850;DHT22;7517;48.400;11.770;2023-05-10T03:34:07;18.00;80.10
14850;DHT22;7517;48.400;11.770;2023-05-10T03:36:36;18.00;80.20
14850;DHT22;7517;48.400;11.770;2023-05-10T03:39:03;18.00;80.20
14850;DHT22;7517;48.400;11.770;2023-05-10T03:41:31;18.00;79.90
14850;DHT22;7517;48.400;11.770;2023-05-10T03:43:58;18.00;80.00
14850;DHT22;7517;48.400;11.770;2023-05-10T03:46:25;18.00;80.10
14850;DHT22;7517;48.400;11.770;2023-05-10T03:48:53;18.00;80.30
14850;DHT22;7517;48.400;11.770;2023-05-10T03:51:20;18.00;80.20
14850;DHT22;7517;48.400;11.770;2023-05-10T03:53:49;18.00;80.10
14850;DHT22;7517;48.400;11.770;2023-05-10T03:56:16;18.00;80.10
14850;DHT22;7517;48.400;11.770;2023-05-10T03:58:43;18.00;80.00
14850;DHT22;7517;48.400;11.770;2023-05-10T04:01:10;18.00;79.90
14850;DHT22;7517;48.400;11.770;2023-05-10T04:03:37;18.00;80.00
14850;DHT22;7517;48.400;11.770;2023-05-10T04:06:08;18.00;80.00
14850;DHT22;7517;48.400;11.770;2023-05-10T04:08:37;18.00;80.00
14850;DHT22;7517;48.400;11.770;2023-05-10T04:11:10;18.00;80.00
14850;DHT22;7517;48.400;11.770;2023-05-10T04:13:39;18.00;80.10
14850;DHT22;7517;48.400;11.770;2023-05-10T04:16:08;18.00;80.00
14850;DHT22;7517;48.400;11.770;2023-05-10T04:18:36;17.90;80.00
14850;DHT22;7517;48.400;11.770;2023-05-10T04:21:03;17.90;80.10
14850;DHT22;7517;48.400;11.770;2023-05-10T04:23:30;17.90;79.90
14850;DHT22;7517;48.400;11.770;2023-05-10T04:26:01;17.90;80.00
14850;DHT22;7517;48.400;11.770;2023-05-10T04:28:30;17.90;80.00
14850;DHT22;7517;48.400;11.770;2023-05-10T04:31:01;17.90;80.00
14850;DHT22;7517;48.400;11.770;2023-05-10T04:33:29;17.90;80.20
14850;DHT22;7517;48.400;11.770;2023-05-10T04:35:57;17.90;80.20
14850;DHT22;7517;48.400;11.770;2023-05-10T04:38:24;17.90;80.40
14850;DHT22;7517;48.400;11.770;2023-05-10T04:40:51;17.90;80.40
14850;DHT22;7517;48.400;11.770;2023-05-10T04:43:18;17.90;80.50
14850;DHT22;7517;48.400;11.770;2023-05-10T04:45:47;18.00;80.40
14850;DHT22;7517;48.400;11.770;2023-05-10T04:48:15;18.00;80.40
14850;DHT22;7517;48.400;11.770;2023-05-10T04:50:42;18.00;80.40
14850;DHT22;7517;48.400;11.770;2023-05-10T04:53:10;18.00;80.40
14850;DHT22;7517;48.400;11.770;2023-05-10T04:55:37;18.00;80.40
14850;DHT22;7517;48.400;11.770;2023-05-10T04:58:04;18.00;80.40
14850;DHT22;7517;48.400;11.770;2023-05-10T05:00:33;18.00;80.50
14850;DHT22;7517;48.400;11.770;2023-05-10T05:03:03;18.00;80.50
14850;DHT22;7517;48.400;11.770;2023-05-10T05:05:31;18.00;80.50
14850;DHT22;7517;48.400;11.770;2023-05-10T05:07:59;18.10;80.40
14850;DHT22;7517;48.400;11.770;2023-05-10T05:10:26;18.10;80.40
14850;DHT22;7517;48.400;11.770;2023-05-10T05:12:53;18.10;80.30
14850;DHT22;7517;48.400;11.770;2023-05-10T05:15:20;18.10;80.20
14850;DHT22;7517;48.400;11.770;2023-05-10T05:17:48;18.10;80.10
14850;DHT22;7517;48.400;11.770;2023-05-10T05:20:17;18.10;80.00
14850;DHT22;7517;48.400;11.770;2023-05-10T05:25:19;18.10;79.90
14850;DHT22;7517;48.400;11.770;2023-05-10T05:27:46;18.10;79.80
14850;DHT22;7517;48.400;11.770;2023-05-10T05:30:13;18.10;79.70
14850;DHT22;7517;48.400;11.770;2023-05-10T05:32:41;18.10;79.70
14850;DHT22;7517;48.400;11.770;2023-05-10T05:35:08;18.00;79.40
14850;DHT22;7517;48.400;11.770;2023-05-10T05:37:37;18.00;79.40
14850;DHT22;7517;48.400;11.770;2023-05-10T05:40:05;18.00;79.50
14850;DHT22;7517;48.400;11.770;2023-05-10T05:42:33;18.00;79.40
14850;DHT22;7517;48.400;11.770;2023-05-10T05:45:00;18.00;79.40
14850;DHT22;7517;48.400;11.770;2023-05-10T05:47:27;17.90;79.20
14850;DHT22;7517;48.400;11.770;2023-05-10T05:49:54;17.90;79.40
14850;DHT22;7517;48.400;11.770;2023-05-10T05:52:22;17.90;79.60
14850;DHT22;7517;48.400;11.770;2023-05-10T05:54:50;17.90;79.70
14850;DHT22;7517;48.400;11.770;2023-05-10T05:57:17;17.90;79.70
14850;DHT22;7517;48.400;11.770;2023-05-10T05:59:44;17.90;79.70
14850;DHT22;7517;48.400;11.770;2023-05-10T06:02:11;17.90;79.80
14850;DHT22;7517;48.400;11.770;2023-05-10T06:04:39;17.90;80.20
14850;DHT22;7517;48.400;11.770;2023-05-10T06:07:06;17.90;79.80
14850;DHT22;7517;48.400;11.770;2023-05-10T06:09:33;17.90;79.50
14850;DHT22;7517;48.400;11.770;2023-05-10T06:12:01;17.90;79.10
14850;DHT22;7517;48.400;11.770;2023-05-10T06:14:29;17.90;79.20
14850;DHT22;7517;48.400;11.770;2023-05-10T06:16:56;17.90;79.20
14850;DHT22;7517;48.400;11.770;2023-05-10T06:19:25;17.90;79.10
14850;DHT22;7517;48.400;11.770;2023-05-10T06:21:52;17.90;79.10
14850;DHT22;7517;48.400;11.770;2023-05-10T06:24:20;17.90;79.00
14850;DHT22;7517;48.400;11.770;2023-05-10T06:26:47;17.90;79.00
14850;DHT22;7517;48.400;11.770;2023-05-10T06:29:17;17.90;79.10
14850;DHT22;7517;48.400;11.770;2023-05-10T06:31:44;17.90;79.20
14850;DHT22;7517;48.400;11.770;2023-05-10T06:34:11;18.00;79.30
14850;DHT22;7517;48.400;11.770;2023-05-10T06:36:39;18.00;79.30
14850;DHT22;7517;48.400;11.770;2023-05-10T06:39:06;18.00;79.30
14850;DHT22;7517;48.400;11.770;2023-05-10T06:41:33;18.00;79.30
14850;DHT22;7517;48.400;11.770;2023-05-10T06:44:01;18.00;79.20
14850;DHT22;7517;48.400;11.770;2023-05-10T06:46:30;18.10;79.30
14850;DHT22;7517;48.400;11.770;2023-05-10T06:48:57;18.10;79.10
14850;DHT22;7517;48.400;11.770;2023-05-10T06:51:25;18.10;78.70
14850;DHT22;7517;48.400;11.770;2023-05-10T06:53:52;18.10;78.60
14850;DHT22;7517;48.400;11.770;2023-05-10T06:56:20;18.10;78.60
14850;DHT22;7517;48.400;11.770;2023-05-10T06:58:47;18.10;78.50
14850;DHT22;7517;48.400;11.770;2023-05-10T07:01:14;18.10;78.40
14850;DHT22;7517;48.400;11.770;2023-05-10T07:03:43;18.20;78.60
14850;DHT22;7517;48.400;11.770;2023-05-10T07:06:10;18.20;78.80
14850;DHT22;7517;48.400;11.770;2023-05-10T07:08:38;18.20;78.80
14850;DHT22;7517;48.400;11.770;2023-05-10T07:11:06;18.20;78.80
14850;DHT22;7517;48.400;11.770;2023-05-10T07:13:34;18.30;79.10
14850;DHT22;7517;48.400;11.770;2023-05-10T07:16:02;18.30;79.20
14850;DHT22;7517;48.400;11.770;2023-05-10T07:18:29;18.40;79.20
14850;DHT22;7517;48.400;11.770;2023-05-10T07:20:58;18.40;79.30
14850;DHT22;7517;48.400;11.770;2023-05-10T07:23:25;18.50;79.40
14850;DHT22;7517;48.400;11.770;2023-05-10T07:25:53;18.60;79.30
14850;DHT22;7517;48.400;11.770;2023-05-10T07:28:22;18.60;79.20
14850;DHT22;7517;48.400;11.770;2023-05-10T07:30:50;18.70;79.00
14850;DHT22;7517;48.400;11.770;2023-05-10T07:33:17;18.80;78.70
14850;DHT22;7517;48.400;11.770;2023-05-10T07:35:44;18.80;78.30
14850;DHT22;7517;48.400;11.770;2023-05-10T07:38:14;18.90;77.90
14850;DHT22;7517;48.400;11.770;2023-05-10T07:40:42;18.90;77.80
14850;DHT22;7517;48.400;11.770;2023-05-10T07:43:10;19.00;78.10
14850;DHT22;7517;48.400;11.770;2023-05-10T07:45:37;19.10;78.10
14850;DHT22;7517;48.400;11.770;2023-05-10T07:48:04;19.10;77.80
14850;DHT22;7517;48.400;11.770;2023-05-10T07:50:32;19.20;77.50
14850;DHT22;7517;48.400;11.770;2023-05-10T07:52:59;19.30;77.20
14850;DHT22;7517;48.400;11.770;2023-05-10T07:55:28;19.30;77.00
14850;DHT22;7517;48.400;11.770;2023-05-10T07:57:55;19.40;77.40
14850;DHT22;7517;48.400;11.770;2023-05-10T08:00:22;19.40;77.20
14850;DHT22;7517;48.400;11.770;2023-05-10T08:02:49;19.50;76.90
14850;DHT22;7517;48.400;11.770;2023-05-10T08:05:17;19.60;76.70
14850;DHT22;7517;48.400;11.770;2023-05-10T08:07:47;19.60;76.40
14850;DHT22;7517;48.400;11.770;2023-05-10T08:10:15;19.70;75.70
14850;DHT22;7517;48.400;11.770;2023-05-10T08:12:45;19.80;75.70
14850;DHT22;7517;48.400;11.770;2023-05-10T08:15:12;19.90;75.90
14850;DHT22;7517;48.400;11.770;2023-05-10T08:17:40;20.00;76.00
14850;DHT22;7517;48.400;11.770;2023-05-10T08:20:16;20.00;75.50
14850;DHT22;7517;48.400;11.770;2023-05-10T08:23:01;20.10;74.70
14850;DHT22;7517;48.400;11.770;2023-05-10T08:25:28;20.10;74.40
14850;DHT22;7517;48.400;11.770;2023-05-10T08:27:57;20.10;73.80
14850;DHT22;7517;48.400;11.770;2023-05-10T08:30:25;20.20;73.70
14850;DHT22;7517;48.400;11.770;2023-05-10T08:32:52;20.20;74.20
14850;DHT22;7517;48.400;11.770;2023-05-10T08:35:19;20.20;74.30
14850;DHT22;7517;48.400;11.770;2023-05-10T08:37:47;20.40;74.50
14850;DHT22;7517;48.400;11.770;2023-05-10T08:40:14;20.50;73.80
14850;DHT22;7517;48.400;11.770;2023-05-10T08:42:47;20.40;73.00
14850;DHT22;7517;48.400;11.770;2023-05-10T08:45:23;20.50;72.60
14850;DHT22;7517;48.400;11.770;2023-05-10T08:47:53;20.50;72.50
14850;DHT22;7517;48.400;11.770;2023-05-10T08:50:23;20.50;72.50
14850;DHT22;7517;48.400;11.770;2023-05-10T08:52:53;20.50;72.00
14850;DHT22;7517;48.400;11.770;2023-05-10T08:55:24;20.50;72.40
14850;DHT22;7517;48.400;11.770;2023-05-10T08:57:51;20.50;72.60
14850;DHT22;7517;48.400;11.770;2023-05-10T09:00:22;20.60;72.80
14850;DHT22;7517;48.400;11.770;2023-05-10T09:02:50;20.60;72.60
14850;DHT22;7517;48.400;11.770;2023-05-10T09:05:19;20.60;72.30
14850;DHT22;7517;48.400;11.770;2023-05-10T09:07:46;20.60;72.30
14850;DHT22;7517;48.400;11.770;2023-05-10T09:10:14;20.60;72.20
14850;DHT22;7517;48.400;11.770;2023-05-10T09:12:43;20.60;72.10
14850;DHT22;7517;48.400;11.770;2023-05-10T09:15:13;20.60;72.10
14850;DHT22;7517;48.400;11.770;2023-05-10T09:17:46;20.60;72.00
14850;DHT22;7517;48.400;11.770;2023-05-10T09:20:14;20.60;71.90
14850;DHT22;7517;48.400;11.770;2023-05-10T09:22:42;20.50;71.90
14850;DHT22;7517;48.400;11.770;2023-05-10T09:25:11;20.50;72.00
14850;DHT22;7517;48.400;11.770;2023-05-10T09:27:40;20.50;71.70
14850;DHT22;7517;48.400;11.770;2023-05-10T09:30:23;20.50;71.80
14850;DHT22;7517;48.400;11.770;2023-05-10T09:32:54;20.50;71.90
14850;DHT22;7517;48.400;11.770;2023-05-10T09:35:24;20.40;72.30
14850;DHT22;7517;48.400;11.770;2023-05-10T09:37:54;20.30;72.70
14850;DHT22;7517;48.400;11.770;2023-05-10T09:40:23;20.50;73.00
14850;DHT22;7517;48.400;11.770;2023-05-10T09:42:53;20.50;72.80
14850;DHT22;7517;48.400;11.770;2023-05-10T09:45:23;20.60;72.70
14850;DHT22;7517;48.400;11.770;2023-05-10T09:47:53;20.60;72.50
14850;DHT22;7517;48.400;11.770;2023-05-10T09:50:21;20.70;72.10
14850;DHT22;7517;48.400;11.770;2023-05-10T09:52:53;20.70;71.70
14850;DHT22;7517;48.400;11.770;2023-05-10T09:55:24;20.70;71.40
14850;DHT22;7517;48.400;11.770;2023-05-10T09:57:59;20.70;70.80
14850;DHT22;7517;48.400;11.770;2023-05-10T10:00:28;20.70;70.70
14850;DHT22;7517;48.400;11.770;2023-05-10T10:03:03;20.70;71.00
14850;DHT22;7517;48.400;11.770;2023-05-10T10:05:31;20.80;70.50
14850;DHT22;7517;48.400;11.770;2023-05-10T10:08:03;20.70;70.30
14850;DHT22;7517;48.400;11.770;2023-05-10T10:10:32;20.70;70.20
14850;DHT22;7517;48.400;11.770;2023-05-10T10:13:02;20.70;70.10
14850;DHT22;7517;48.400;11.770;2023-05-10T10:15:30;20.70;69.80
14850;DHT22;7517;48.400;11.770;2023-05-10T10:18:00;20.70;70.10
14850;DHT22;7517;48.400;11.770;2023-05-10T10:20:30;20.60;69.80
14850;DHT22;7517;48.400;11.770;2023-05-10T10:22:57;20.60;69.60
14850;DHT22;7517;48.400;11.770;2023-05-10T10:25:25;20.60;69.70
14850;DHT22;7517;48.400;11.770;2023-05-10T10:28:12;20.60;70.00
14850;DHT22;7517;48.400;11.770;2023-05-10T10:30:51;20.50;70.10
14850;DHT22;7517;48.400;11.770;2023-05-10T10:33:56;20.50;70.60
14850;DHT22;7517;48.400;11.770;2023-05-10T10:36:27;20.60;70.00
14850;DHT22;7517;48.400;11.770;2023-05-10T10:38:59;20.60;70.70
14850;DHT22;7517;48.400;11.770;2023-05-10T10:41:32;20.60;70.70
14850;DHT22;7517;48.400;11.770;2023-05-10T10:44:25;20.60;70.70
14850;DHT22;7517;48.400;11.770;2023-05-10T10:47:02;20.70;70.90
14850;DHT22;7517;48.400;11.770;2023-05-10T10:49:37;20.70;70.80
14850;DHT22;7517;48.400;11.770;2023-05-10T10:52:20;20.70;70.70
14850;DHT22;7517;48.400;11.770;2023-05-10T10:54:52;20.70;71.00
14850;DHT22;7517;48.400;11.770;2023-05-10T10:57:34;20.80;71.20
14850;DHT22;7517;48.400;11.770;2023-05-10T11:00:38;20.90;70.90
14850;DHT22;7517;48.400;11.770;2023-05-10T11:03:07;21.00;70.50
14850;DHT22;7517;48.400;11.770;2023-05-10T11:05:41;21.10;70.40
14850;DHT22;7517;48.400;11.770;2023-05-10T11:08:11;21.20;70.20
14850;DHT22;7517;48.400;11.770;2023-05-10T11:10:53;21.20;69.70
14850;DHT22;7517;48.400;11.770;2023-05-10T11:13:33;21.30;68.80
14850;DHT22;7517;48.400;11.770;2023-05-10T11:16:13;21.30;69.40
14850;DHT22;7517;48.400;11.770;2023-05-10T11:18:53;21.30;68.40
14850;DHT22;7517;48.400;11.770;2023-05-10T11:21:23;21.40;68.20
14850;DHT22;7517;48.400;11.770;2023-05-10T11:23:52;21.40;68.20
14850;DHT22;7517;48.400;11.770;2023-05-10T11:26:22;21.40;68.50
14850;DHT22;7517;48.400;11.770;2023-05-10T11:28:52;21.50;67.90
14850;DHT22;7517;48.400;11.770;2023-05-10T11:31:21;21.50;67.60
14850;DHT22;7517;48.400;11.770;2023-05-10T11:33:53;21.60;67.60
14850;DHT22;7517;48.400;11.770;2023-05-10T11:36:26;21.70;67.00
14850;DHT22;7517;48.400;11.770;2023-05-10T11:38:55;21.70;66.20
14850;DHT22;7517;48.400;11.770;2023-05-10T11:41:24;21.70;65.50
14850;DHT22;7517;48.400;11.770;2023-05-10T11:43:54;21.70;64.50
14850;DHT22;7517;48.400;11.770;2023-05-10T11:46:24;21.70;63.70
14850;DHT22;7517;48.400;11.770;2023-05-10T11:48:57;21.60;63.60
14850;DHT22;7517;48.400;11.770;2023-05-10T11:51:28;21.60;64.10
14850;DHT22;7517;48.400;11.770;2023-05-10T11:53:57;21.50;64.10
14850;DHT22;7517;48.400;11.770;2023-05-10T11:56:25;21.50;64.00
14850;DHT22;7517;48.400;11.770;2023-05-10T11:58:54;21.40;64.40
14850;DHT22;7517;48.400;11.770;2023-05-10T12:01:23;21.40;64.80
14850;DHT22;7517;48.400;11.770;2023-05-10T12:03:52;21.30;64.70
14850;DHT22;7517;48.400;11.770;2023-05-10T12:06:28;21.20;65.40
14850;DHT22;7517;48.400;11.770;2023-05-10T12:08:57;21.20;65.80
14850;DHT22;7517;48.400;11.770;2023-05-10T12:11:25;21.10;65.90
14850;DHT22;7517;48.400;11.770;2023-05-10T12:13:54;21.00;66.30
14850;DHT22;7517;48.400;11.770;2023-05-10T12:16:23;21.00;66.40
14850;DHT22;7517;48.400;11.770;2023-05-10T12:18:53;21.00;67.20
14850;DHT22;7517;48.400;11.770;2023-05-10T12:21:22;20.90;66.70
14850;DHT22;7517;48.400;11.770;2023-05-10T12:23:53;20.90;67.00
14850;DHT22;7517;48.400;11.770;2023-05-10T12:26:22;20.80;66.80
14850;DHT22;7517;48.400;11.770;2023-05-10T12:28:52;20.80;67.00
14850;DHT22;7517;48.400;11.770;2023-05-10T12:31:19;20.80;66.80
14850;DHT22;7517;48.400;11.770;2023-05-10T12:33:47;20.80;66.70
14850;DHT22;7517;48.400;11.770;2023-05-10T12:36:15;20.70;66.70
14850;DHT22;7517;48.400;11.770;2023-05-10T12:38:45;20.70;66.60
14850;DHT22;7517;48.400;11.770;2023-05-10T12:41:16;20.70;66.50
14850;DHT22;7517;48.400;11.770;2023-05-10T12:43:45;20.70;66.90
14850;DHT22;7517;48.400;11.770;2023-05-10T12:46:13;20.70;67.10
14850;DHT22;7517;48.400;11.770;2023-05-10T12:48:42;20.70;66.70
14850;DHT22;7517;48.400;11.770;2023-05-10T12:51:18;20.70;66.70
14850;DHT22;7517;48.400;11.770;2023-05-10T12:53:48;20.70;67.00
14850;DHT22;7517;48.400;11.770;2023-05-10T12:56:16;20.70;67.10
14850;DHT22;7517;48.400;11.770;2023-05-10T12:58:44;20.70;67.30
14850;DHT22;7517;48.400;11.770;2023-05-10T13:01:13;20.70;67.80
14850;DHT22;7517;48.400;11.770;2023-05-10T13:03:40;20.70;67.50
14850;DHT22;7517;48.400;11.770;2023-05-10T13:06:08;20.70;67.70
14850;DHT22;7517;48.400;11.770;2023-05-10T13:08:35;20.70;67.60
14850;DHT22;7517;48.400;11.770;2023-05-10T13:11:03;20.70;68.00
14850;DHT22;7517;48.400;11.770;2023-05-10T13:13:32;20.60;68.20
14850;DHT22;7517;48.400;11.770;2023-05-10T13:15:59;20.60;68.40
14850;DHT22;7517;48.400;11.770;2023-05-10T13:18:27;20.60;68.60
14850;DHT22;7517;48.400;11.770;2023-05-10T13:20:54;20.50;68.60
14850;DHT22;7517;48.400;11.770;2023-05-10T13:23:22;20.50;68.90
14850;DHT22;7517;48.400;11.770;2023-05-10T13:25:49;20.40;69.10
14850;DHT22;7517;48.400;11.770;2023-05-10T13:28:17;20.30;69.10
14850;DHT22;7517;48.400;11.770;2023-05-10T13:30:45;20.30;69.30
14850;DHT22;7517;48.400;11.770;2023-05-10T13:33:12;20.20;69.80
14850;DHT22;7517;48.400;11.770;2023-05-10T13:35:40;20.20;70.70
14850;DHT22;7517;48.400;11.770;2023-05-10T13:38:07;20.10;71.30
14850;DHT22;7517;48.400;11.770;2023-05-10T13:40:34;20.00;71.60
14850;DHT22;7517;48.400;11.770;2023-05-10T13:43:02;20.00;71.60
14850;DHT22;7517;48.400;11.770;2023-05-10T13:45:29;19.90;72.50
14850;DHT22;7517;48.400;11.770;2023-05-10T13:47:58;19.90;71.90
14850;DHT22;7517;48.400;11.770;2023-05-10T13:50:26;19.80;72.10
14850;DHT22;7517;48.400;11.770;2023-05-10T13:52:53;19.80;72.50
14850;DHT22;7517;48.400;11.770;2023-05-10T13:55:21;19.70;72.80
14850;DHT22;7517;48.400;11.770;2023-05-10T13:57:48;19.70;73.00
14850;DHT22;7517;48.400;11.770;2023-05-10T14:00:16;19.70;73.20
14850;DHT22;7517;48.400;11.770;2023-05-10T14:02:43;19.60;73.00
14850;DHT22;7517;48.400;11.770;2023-05-10T14:05:12;19.60;73.20
14850;DHT22;7517;48.400;11.770;2023-05-10T14:07:39;19.60;73.20
14850;DHT22;7517;48.400;11.770;2023-05-10T14:10:07;19.60;74.00
14850;DHT22;7517;48.400;11.770;2023-05-10T14:12:35;19.50;73.50
14850;DHT22;7517;48.400;11.770;2023-05-10T14:15:02;19.50;73.50
14850;DHT22;7517;48.400;11.770;2023-05-10T14:17:32;19.50;73.50
14850;DHT22;7517;48.400;11.770;2023-05-10T14:19:59;19.50;74.20
14850;DHT22;7517;48.400;11.770;2023-05-10T14:22:30;19.50;73.20
14850;DHT22;7517;48.400;11.770;2023-05-10T14:24:58;19.40;73.00
14850;DHT22;7517;48.400;11.770;2023-05-10T14:27:25;19.40;73.20
14850;DHT22;7517;48.400;11.770;2023-05-10T14:29:53;19.40;73.60
14850;DHT22;7517;48.400;11.770;2023-05-10T14:32:20;19.40;74.10
14850;DHT22;7517;48.400;11.770;2023-05-10T14:34:47;19.40;74.10
14850;DHT22;7517;48.400;11.770;2023-05-10T14:37:15;19.40;73.80
14850;DHT22;7517;48.400;11.770;2023-05-10T14:39:44;19.40;73.90
14850;DHT22;7517;48.400;11.770;2023-05-10T14:42:12;19.40;74.00
14850;DHT22;7517;48.400;11.770;2023-05-10T14:44:39;19.40;74.10
14850;DHT22;7517;48.400;11.770;2023-05-10T14:47:06;19.40;74.40
14850;DHT22;7517;48.400;11.770;2023-05-10T14:49:33;19.40;74.40
14850;DHT22;7517;48.400;11.770;2023-05-10T14:52:01;19.40;74.40
14850;DHT22;7517;48.400;11.770;2023-05-10T14:54:28;19.40;74.50
14850;DHT22;7517;48.400;11.770;2023-05-10T14:56:57;19.40;74.70
14850;DHT22;7517;48.400;11.770;2023-05-10T14:59:24;19.40;75.10
14850;DHT22;7517;48.400;11.770;2023-05-10T15:01:52;19.40;75.30
14850;DHT22;7517;48.400;11.770;2023-05-10T15:04:19;19.40;75.20
14850;DHT22;7517;48.400;11.770;2023-05-10T15:06:46;19.40;75.40
14850;DHT22;7517;48.400;11.770;2023-05-10T15:09:14;19.40;75.20
14850;DHT22;7517;48.400;11.770;2023-05-10T15:11:41;19.50;74.90
14850;DHT22;7517;48.400;11.770;2023-05-10T15:14:11;19.50;75.00
14850;DHT22;7517;48.400;11.770;2023-05-10T15:16:38;19.50;74.70
14850;DHT22;7517;48.400;11.770;2023-05-10T15:19:05;19.50;74.30
14850;DHT22;7517;48.400;11.770;2023-05-10T15:21:32;19.50;74.30
14850;DHT22;7517;48.400;11.770;2023-05-10T15:24:04;19.50;74.50
14850;DHT22;7517;48.400;11.770;2023-05-10T15:26:31;19.50;74.20
14850;DHT22;7517;48.400;11.770;2023-05-10T15:28:59;19.50;74.20
14850;DHT22;7517;48.400;11.770;2023-05-10T15:31:28;19.50;74.40
14850;DHT22;7517;48.400;11.770;2023-05-10T15:33:57;19.50;74.50
14850;DHT22;7517;48.400;11.770;2023-05-10T15:36:25;19.40;74.40
14850;DHT22;7517;48.400;11.770;2023-05-10T15:38:53;19.40;75.00
14850;DHT22;7517;48.400;11.770;2023-05-10T15:41:23;19.40;74.10
14850;DHT22;7517;48.400;11.770;2023-05-10T15:43:50;19.40;73.90
14850;DHT22;7517;48.400;11.770;2023-05-10T15:46:17;19.40;74.00
14850;DHT22;7517;48.400;11.770;2023-05-10T15:48:46;19.40;74.00